createdAt,value
2023-02-03T00:01:04.567Z,5.78
2023-02-03T00:04:08.008Z,6.45
2023-02-03T00:07:14.065Z,6.97
2023-02-03T00:10:21.646Z,6.20
2023-02-03T00:13:26.763Z,6.53
2023-02-03T00:16:30.212Z,6.97
2023-02-03T00:19:33.926Z,5.97
2023-02-03T00:22:37.514Z,7.75
2023-02-03T00:25:41.237Z,6.72
2023-02-03T00:28:45.418Z,4.80
2023-02-03T00:31:49.359Z,7.30
2023-02-03T00:34:52.867Z,5.38
2023-02-03T00:37:57.563Z,5.40
2023-02-03T00:41:01.058Z,3.63
2023-02-03T00:44:04.561Z,7.97
2023-02-03T00:47:08.603Z,5.38
2023-02-03T00:50:12.288Z,6.05
2023-02-03T00:53:16.098Z,5.78
2023-02-03T00:56:19.847Z,4.22
2023-02-03T00:59:23.265Z,6.80
2023-02-03T01:02:26.915Z,5.93
2023-02-03T01:05:30.772Z,5.82
2023-02-03T01:08:35.819Z,5.55
2023-02-03T01:11:39.282Z,7.78
2023-02-03T01:14:44.347Z,5.70
2023-02-03T01:17:47.854Z,6.70
2023-02-03T01:20:51.262Z,7.70
2023-02-03T01:23:55.213Z,6.95
2023-02-03T01:26:58.818Z,6.20
2023-02-03T01:30:02.204Z,5.45
2023-02-03T01:33:06.963Z,6.00
2023-02-03T01:36:11.134Z,6.90
2023-02-03T01:39:15.013Z,5.23
2023-02-03T01:42:18.535Z,5.93
2023-02-03T01:45:23.230Z,5.45
2023-02-03T01:48:26.823Z,4.70
2023-02-03T01:51:31.451Z,7.47
2023-02-03T01:54:38.897Z,5.95
2023-02-03T01:57:52.615Z,9.00
2023-02-03T02:00:57.695Z,6.22
2023-02-03T02:04:03.916Z,6.55
2023-02-03T02:07:08.450Z,5.65
2023-02-03T02:10:12.285Z,7.60
2023-02-03T02:13:20.165Z,4.90
2023-02-03T02:16:32.143Z,5.55
2023-02-03T02:20:13.560Z,7.28
2023-02-03T02:23:35.482Z,5.55
2023-02-03T02:27:08.310Z,4.07
2023-02-03T02:30:17.975Z,5.70
2023-02-03T02:33:46.267Z,4.53
2023-02-03T02:37:04.446Z,5.72
2023-02-03T02:40:24.159Z,7.03
2023-02-03T02:43:39.743Z,4.57
2023-02-03T02:47:00.255Z,5.05
2023-02-03T02:50:20.357Z,6.20
2023-02-03T02:53:28.180Z,5.57
2023-02-03T02:56:34.632Z,4.82
2023-02-03T02:59:38.204Z,6.10
2023-02-03T03:02:41.744Z,7.43
2023-02-03T03:05:51.083Z,6.53
2023-02-03T03:09:02.776Z,6.35
2023-02-03T03:12:29.985Z,6.68
2023-02-03T03:15:35.255Z,7.22
2023-02-03T03:18:49.359Z,4.93
2023-02-03T03:21:59.204Z,2.80
2023-02-03T03:25:22.991Z,5.15
2023-02-03T03:28:35.501Z,9.07
2023-02-03T03:31:40.817Z,7.03
2023-02-03T03:34:44.636Z,5.40
2023-02-03T03:38:04.587Z,7.45
2023-02-03T03:41:23.231Z,4.80
2023-02-03T03:44:34.175Z,4.27
2023-02-03T03:47:46.164Z,5.38
2023-02-03T03:50:58.460Z,5.82
2023-02-03T03:54:07.613Z,6.47
2023-02-03T03:57:19.845Z,4.90
2023-02-03T04:00:26.155Z,5.82
2023-02-03T04:03:38.183Z,7.75
2023-02-03T04:06:43.976Z,5.80
2023-02-03T04:09:47.587Z,7.20
2023-02-03T04:12:51.204Z,5.55
2023-02-03T04:15:54.713Z,5.68
2023-02-03T04:18:58.463Z,5.07
2023-02-03T04:22:01.868Z,5.88
2023-02-03T04:25:05.679Z,4.20
2023-02-03T04:28:09.249Z,7.25
2023-02-03T04:31:12.930Z,4.13
2023-02-03T04:34:16.358Z,4.47
2023-02-03T04:37:21.228Z,3.88
2023-02-03T04:40:26.064Z,6.28
2023-02-03T04:43:29.782Z,5.20
2023-02-03T04:46:33.190Z,6.07
2023-02-03T04:49:36.798Z,6.32
2023-02-03T04:52:40.219Z,5.38
2023-02-03T04:55:50.118Z,5.77
2023-02-03T04:58:53.677Z,6.22
2023-02-03T05:01:58.249Z,4.55
2023-02-03T05:05:01.742Z,6.38
2023-02-03T05:08:05.513Z,6.90
2023-02-03T05:11:09.007Z,7.25
2023-02-03T05:14:12.434Z,5.90
2023-02-03T05:17:15.844Z,8.02
2023-02-03T05:20:19.556Z,6.13
2023-02-03T05:23:22.976Z,7.47
2023-02-03T05:26:26.461Z,6.97
2023-02-03T05:29:29.962Z,8.20
2023-02-03T05:32:33.524Z,9.50
2023-02-03T05:35:37.096Z,14.48
2023-02-03T05:38:42.108Z,16.63
2023-02-03T05:41:56.563Z,13.77
2023-02-03T05:45:01.585Z,8.73
2023-02-03T05:48:05.367Z,6.90
2023-02-03T05:51:08.830Z,6.55
2023-02-03T05:54:12.449Z,8.68
2023-02-03T05:57:16.121Z,7.77
2023-02-03T06:00:21.591Z,6.28
2023-02-03T06:03:25.166Z,8.98
2023-02-03T06:06:33.940Z,7.15
2023-02-03T06:09:37.326Z,7.00
2023-02-03T06:12:41.300Z,5.90
2023-02-03T06:15:45.307Z,8.27
2023-02-03T06:18:49.326Z,6.93
2023-02-03T06:21:52.720Z,7.30
2023-02-03T06:24:56.128Z,11.63
2023-02-03T06:28:00.215Z,9.45
2023-02-03T06:31:04.327Z,5.90
2023-02-03T06:34:07.797Z,7.18
2023-02-03T06:37:11.359Z,8.93
2023-02-03T06:40:14.877Z,7.38
2023-02-03T06:43:19.162Z,7.47
2023-02-03T06:46:22.999Z,7.25
2023-02-03T06:49:26.937Z,6.80
2023-02-03T06:52:30.606Z,9.47
2023-02-03T06:55:34.211Z,7.25
2023-02-03T06:58:37.830Z,11.02
2023-02-03T07:01:41.314Z,13.25
2023-02-03T07:04:45.390Z,14.32
2023-02-03T07:07:49.123Z,14.57
2023-02-03T07:10:56.145Z,10.53
2023-02-03T07:13:59.847Z,8.82
2023-02-03T07:17:03.721Z,6.93
2023-02-03T07:20:07.759Z,6.00
2023-02-03T07:23:11.246Z,8.43
2023-02-03T07:26:14.739Z,16.52
2023-02-03T07:29:18.270Z,22.67
2023-02-03T07:32:21.939Z,19.70
2023-02-03T07:35:26.024Z,20.38
2023-02-03T07:38:30.070Z,27.43
2023-02-03T07:41:33.780Z,18.20
2023-02-03T07:44:37.138Z,34.42
2023-02-03T07:47:42.562Z,22.80
2023-02-03T07:50:47.628Z,43.60
2023-02-03T07:53:51.070Z,58.20
2023-02-03T07:56:54.587Z,65.33
2023-02-03T07:59:58.047Z,47.17
2023-02-03T08:03:01.631Z,41.22
2023-02-03T08:06:05.338Z,27.58
2023-02-03T08:09:08.759Z,47.37
2023-02-03T08:12:12.477Z,40.53
2023-02-03T08:15:17.460Z,30.58
2023-02-03T08:18:21.161Z,17.95
2023-02-03T08:21:24.617Z,9.57
2023-02-03T08:24:28.164Z,8.40
2023-02-03T08:27:33.035Z,9.70
2023-02-03T08:30:36.638Z,9.07
2023-02-03T08:33:40.834Z,8.13
2023-02-03T08:36:49.366Z,9.02
2023-02-03T08:39:53.814Z,7.50
2023-02-03T08:47:59.101Z,7.18
2023-02-03T08:51:03.011Z,8.40
2023-02-03T08:54:06.615Z,6.57
2023-02-03T08:57:10.648Z,7.90
2023-02-03T09:00:14.632Z,6.82
2023-02-03T09:03:18.110Z,8.25
2023-02-03T09:06:23.791Z,8.60
2023-02-03T09:09:29.198Z,9.00
2023-02-03T09:12:32.660Z,7.77
2023-02-03T09:15:37.082Z,7.20
2023-02-03T09:18:41.168Z,8.52
2023-02-03T09:21:48.109Z,7.68
2023-02-03T09:24:52.066Z,8.88
2023-02-03T09:27:55.675Z,6.07
2023-02-03T09:31:06.921Z,9.17
2023-02-03T09:34:11.019Z,6.78
2023-02-03T09:37:15.248Z,8.95
2023-02-03T09:40:28.928Z,8.77
2023-02-03T09:43:38.699Z,19.93
2023-02-03T09:46:46.332Z,43.93
2023-02-03T09:49:56.026Z,18.35
2023-02-03T09:53:04.025Z,18.50
2023-02-03T09:56:12.648Z,11.10
2023-02-03T09:59:16.359Z,25.53
2023-02-03T10:02:50.718Z,29.57
2023-02-03T10:06:08.183Z,23.48
2023-02-03T10:09:44.238Z,19.65
2023-02-03T10:12:59.517Z,20.63
2023-02-03T10:16:15.048Z,16.80
2023-02-03T10:19:24.102Z,7.03
2023-02-03T10:22:29.966Z,5.78
2023-02-03T10:25:45.992Z,14.30
2023-02-03T10:28:55.807Z,7.72
2023-02-03T10:32:00.600Z,11.43
2023-02-03T10:35:10.894Z,9.97
2023-02-03T10:38:28.919Z,13.15
2023-02-03T10:41:33.472Z,10.35
2023-02-03T10:45:11.714Z,10.05
2023-02-03T10:53:47.224Z,13.50
2023-02-03T10:56:50.836Z,15.93
2023-02-03T11:00:06.236Z,40.22
2023-02-03T11:03:29.415Z,24.20
2023-02-03T11:06:34.089Z,21.10
2023-02-03T11:09:43.056Z,14.63
2023-02-03T11:12:46.587Z,9.32
2023-02-03T11:15:56.198Z,9.40
2023-02-03T11:19:22.801Z,10.02
2023-02-03T11:22:40.638Z,7.80
2023-02-03T11:25:46.907Z,8.27
2023-02-03T11:28:53.570Z,6.75
2023-02-03T11:32:00.122Z,10.50
2023-02-03T11:35:16.464Z,10.68
2023-02-03T11:38:38.819Z,8.40
2023-02-03T11:41:43.074Z,9.13
2023-02-03T11:44:46.497Z,8.43
2023-02-03T11:47:55.361Z,8.50
2023-02-03T11:51:11.351Z,8.68
2023-02-03T11:54:41.201Z,7.57
2023-02-03T11:58:11.840Z,8.40
2023-02-03T12:01:45.678Z,6.03
2023-02-03T12:04:52.224Z,7.40
2023-02-03T12:08:20.363Z,9.07
2023-02-03T12:11:49.102Z,10.20
2023-02-03T12:15:01.379Z,10.77
2023-02-03T12:18:28.063Z,9.10
2023-02-03T12:21:55.584Z,7.60
2023-02-03T12:25:16.364Z,8.35
2023-02-03T12:28:33.212Z,6.90
2023-02-03T12:32:15.387Z,7.63
2023-02-03T12:35:54.944Z,15.57
2023-02-03T12:39:11.245Z,9.68
2023-02-03T12:42:31.778Z,7.50
2023-02-03T12:45:38.520Z,9.60
2023-02-03T12:49:00.587Z,8.67
2023-02-03T12:52:26.936Z,14.73
2023-02-03T12:55:43.576Z,10.00
2023-02-03T12:58:58.792Z,12.05
2023-02-03T13:02:24.480Z,8.80
2023-02-03T13:05:51.053Z,8.23
2023-02-03T13:09:21.905Z,6.78
2023-02-03T13:12:32.553Z,7.50
2023-02-03T13:15:44.093Z,10.13
2023-02-03T13:18:55.835Z,8.10
2023-02-03T13:21:59.428Z,10.77
2023-02-03T13:25:05.840Z,11.45
2023-02-03T13:28:22.775Z,9.15
2023-02-03T13:31:38.056Z,8.88
2023-02-03T13:34:50.585Z,13.10
2023-02-03T13:37:57.389Z,8.37
2023-02-03T13:41:28.712Z,7.50
2023-02-03T13:44:32.504Z,9.02
2023-02-03T13:47:36.107Z,8.35
2023-02-03T13:50:40.344Z,8.77
2023-02-03T13:53:45.979Z,9.43
2023-02-03T13:57:02.872Z,7.65
2023-02-03T14:00:29.149Z,9.70
2023-02-03T14:03:32.658Z,10.32
2023-02-03T14:06:38.931Z,8.67
2023-02-03T14:09:45.597Z,6.28
2023-02-03T14:12:51.740Z,7.47
2023-02-03T14:16:25.510Z,10.95
2023-02-03T14:19:52.015Z,8.40
2023-02-03T14:23:09.250Z,10.57
2023-02-03T14:26:24.626Z,8.40
2023-02-03T14:29:36.688Z,9.13
2023-02-03T14:32:56.712Z,19.38
2023-02-03T14:36:00.249Z,18.70
2023-02-03T14:39:25.704Z,13.00
2023-02-03T14:43:04.903Z,10.88
2023-02-03T14:46:22.129Z,11.75
2023-02-03T14:49:37.442Z,6.47
2023-02-03T14:53:14.884Z,7.47
2023-02-03T14:57:07.345Z,8.90
2023-02-03T15:00:28.147Z,7.78
2023-02-03T15:03:32.214Z,9.40
2023-02-03T15:06:50.079Z,9.23
2023-02-03T15:09:56.655Z,8.43
2023-02-03T15:13:00.214Z,7.27
2023-02-03T15:16:06.021Z,8.80
2023-02-03T15:19:18.878Z,8.38
2023-02-03T15:22:22.531Z,9.27
2023-02-03T15:25:28.878Z,12.40
2023-02-03T15:28:32.609Z,8.00
2023-02-03T15:31:44.957Z,8.32
2023-02-03T15:34:49.287Z,10.13
2023-02-03T15:38:00.905Z,11.77
2023-02-03T15:41:07.992Z,15.15
2023-02-03T15:44:30.138Z,12.03
2023-02-03T15:47:35.434Z,13.02
2023-02-03T15:50:49.134Z,17.33
2023-02-03T15:53:59.407Z,15.30
2023-02-03T15:57:12.347Z,13.20
2023-02-03T16:00:40.649Z,13.77
2023-02-03T16:03:53.253Z,13.82
2023-02-03T16:06:57.349Z,11.75
2023-02-03T16:10:01.294Z,14.23
2023-02-03T16:13:22.026Z,11.85
2023-02-03T16:16:30.568Z,12.30
2023-02-03T16:19:38.593Z,12.50
2023-02-03T16:22:47.558Z,12.90
2023-02-03T16:26:20.956Z,17.90
2023-02-03T16:29:48.500Z,22.38
2023-02-03T16:33:28.257Z,15.93
2023-02-03T16:36:50.280Z,14.93
2023-02-03T16:40:12.387Z,13.60
2023-02-03T16:43:36.296Z,14.73
2023-02-03T16:46:58.526Z,11.43
2023-02-03T16:50:32.736Z,11.45
2023-02-03T16:53:41.024Z,10.10
2023-02-03T16:56:44.825Z,10.00
2023-02-03T16:59:48.488Z,12.50
2023-02-03T17:02:52.784Z,12.27
2023-02-03T17:05:57.607Z,10.65
2023-02-03T17:09:01.590Z,11.17
2023-02-03T17:12:05.290Z,10.90
2023-02-03T17:15:09.304Z,10.23
2023-02-03T17:18:15.150Z,11.48
2023-02-03T17:21:22.650Z,10.60
2023-02-03T17:24:26.156Z,11.35
2023-02-03T17:27:29.922Z,14.18
2023-02-03T17:30:35.338Z,15.73
2023-02-03T17:33:39.072Z,11.63
2023-02-03T17:36:42.650Z,12.85
2023-02-03T17:56:24.340Z,24.87
2023-02-03T17:59:28.026Z,13.68
2023-02-03T18:02:31.608Z,16.23
2023-02-03T18:05:37.118Z,10.48
2023-02-03T18:08:41.416Z,15.83
2023-02-03T18:11:46.153Z,19.10
2023-02-03T18:14:49.800Z,20.77
2023-02-03T18:17:53.213Z,26.02
2023-02-03T18:20:56.930Z,15.60
2023-02-03T18:24:02.035Z,16.92
2023-02-03T18:27:05.900Z,25.65
2023-02-03T18:30:11.720Z,16.30
2023-02-03T18:33:16.452Z,17.23
2023-02-03T18:36:20.636Z,17.65
2023-02-03T18:39:24.391Z,13.30
2023-02-03T18:42:28.044Z,16.33
2023-02-03T18:45:34.566Z,14.63
2023-02-03T18:48:41.047Z,13.65
2023-02-03T18:51:44.646Z,12.50
2023-02-03T18:54:48.115Z,16.45
2023-02-03T18:57:52.531Z,14.75
2023-02-03T19:00:56.347Z,12.30
2023-02-03T19:04:03.005Z,8.95
2023-02-03T19:07:06.951Z,8.85
2023-02-03T19:10:10.860Z,11.00
2023-02-03T19:13:14.580Z,6.78
2023-02-03T19:16:18.852Z,8.02
2023-02-03T19:19:22.772Z,9.98
2023-02-03T19:22:26.522Z,10.60
2023-02-03T19:25:30.464Z,10.13
2023-02-03T19:28:35.357Z,10.52
2023-02-03T19:31:40.747Z,8.38
2023-02-03T19:34:44.328Z,10.43
2023-02-03T19:37:47.981Z,12.43
2023-02-03T19:40:51.715Z,14.43
2023-02-03T19:43:55.403Z,13.93
2023-02-03T19:46:59.268Z,10.77
2023-02-03T19:50:02.738Z,11.70
2023-02-03T19:53:08.591Z,11.52
2023-02-03T19:56:12.529Z,13.43
2023-02-03T19:59:16.515Z,14.63
2023-02-03T20:02:20.925Z,15.38
2023-02-03T20:05:24.463Z,9.27
2023-02-03T20:08:28.283Z,8.60
2023-02-03T20:11:32.058Z,6.70
2023-02-03T20:14:35.788Z,7.55
2023-02-03T20:17:39.314Z,5.72
2023-02-03T20:20:42.935Z,6.80
2023-02-03T20:23:46.472Z,8.73
2023-02-03T20:26:50.385Z,7.38
2023-02-03T20:29:54.374Z,10.35
2023-02-03T20:32:58.222Z,12.27
2023-02-03T20:36:02.048Z,5.15
2023-02-03T20:39:06.622Z,4.45
2023-02-03T20:42:17.506Z,4.63
2023-02-03T20:45:24.240Z,8.55
2023-02-03T20:48:28.386Z,9.07
2023-02-03T20:51:32.353Z,7.80
2023-02-03T20:54:37.296Z,6.15
2023-02-03T20:57:41.411Z,7.60
2023-02-03T21:00:46.545Z,6.82
2023-02-03T21:04:10.244Z,8.43
2023-02-03T21:07:16.139Z,6.95
2023-02-03T21:10:22.852Z,6.57
2023-02-03T21:13:30.261Z,8.75
2023-02-03T21:16:38.726Z,10.35
2023-02-03T21:19:42.708Z,9.60
2023-02-03T21:22:46.067Z,8.93
2023-02-03T21:25:49.864Z,10.20
2023-02-03T21:28:57.562Z,9.63
2023-02-03T21:32:01.978Z,11.70
2023-02-03T21:35:32.259Z,11.00
2023-02-03T21:38:36.125Z,9.93
2023-02-03T21:41:39.834Z,10.45
2023-02-03T21:44:44.353Z,8.07
2023-02-03T21:47:49.497Z,10.05
2023-02-03T21:50:54.933Z,8.97
2023-02-03T21:54:03.462Z,9.38
2023-02-03T21:57:17.331Z,9.05
2023-02-03T22:00:43.016Z,21.20
2023-02-03T22:03:51.493Z,20.83
2023-02-03T22:06:56.174Z,12.43
2023-02-03T22:09:59.856Z,17.85
2023-02-03T22:13:04.201Z,15.25
2023-02-03T22:16:07.852Z,23.35
2023-02-03T22:19:11.735Z,15.33
2023-02-03T22:22:15.203Z,14.60
2023-02-03T22:25:18.588Z,17.40
2023-02-03T22:28:22.207Z,14.20
2023-02-03T22:31:25.755Z,11.80
2023-02-03T22:34:29.247Z,13.07
2023-02-03T22:37:33.400Z,13.75
2023-02-03T22:40:36.885Z,15.32
2023-02-03T22:43:40.727Z,13.65
2023-02-03T22:46:44.206Z,16.25
2023-02-03T22:49:47.733Z,14.33
2023-02-03T22:52:51.184Z,18.85
2023-02-03T22:55:54.842Z,21.90
2023-02-03T22:58:58.375Z,15.27
2023-02-03T23:02:01.870Z,18.05
2023-02-03T23:05:06.534Z,22.80
2023-02-03T23:08:10.151Z,23.52
2023-02-03T23:11:13.563Z,30.50
2023-02-03T23:14:17.062Z,22.48
2023-02-03T23:17:20.533Z,18.45
2023-02-03T23:20:24.146Z,15.13
2023-02-03T23:23:27.546Z,17.80
2023-02-03T23:26:31.064Z,20.10
2023-02-03T23:29:37.488Z,20.45
2023-02-03T23:32:41.260Z,17.27
2023-02-03T23:35:49.195Z,19.73
2023-02-03T23:38:52.601Z,18.17
2023-02-03T23:41:59.097Z,19.75
2023-02-03T23:45:03.248Z,18.25
2023-02-03T23:48:07.028Z,17.07
2023-02-03T23:51:10.532Z,19.08
2023-02-03T23:54:13.977Z,19.33
2023-02-03T23:57:17.357Z,22.05
